sensor_id;sensor_type;location;lat;lon;timestamp;pressure;altitude;pressure_sealevel;temperature;humidity
48527;BME280;34317;51.660;5.824;2022-08-19T00:01:45;101241.13;;;21.68;57.14
48527;BME280;34317;51.660;5.824;2022-08-19T00:04:29;101241.66;;;21.62;56.84
48527;BME280;34317;51.660;5.824;2022-08-19T00:06:57;101254.66;;;21.56;57.04
48527;BME280;34317;51.660;5.824;2022-08-19T00:09:25;101240.75;;;21.51;57.10
48527;BME280;34317;51.660;5.824;2022-08-19T00:11:53;101244.66;;;21.47;57.21
48527;BME280;34317;51.660;5.824;2022-08-19T00:14:23;101245.78;;;21.45;57.28
48527;BME280;34317;51.660;5.824;2022-08-19T00:16:52;101248.56;;;21.43;57.27
48527;BME280;34317;51.660;5.824;2022-08-19T00:19:22;101255.94;;;21.41;57.35
48527;BME280;34317;51.660;5.824;2022-08-19T00:21:49;101253.38;;;21.39;57.43
48527;BME280;34317;51.660;5.824;2022-08-19T00:24:17;101254.50;;;21.37;57.31
48527;BME280;34317;51.660;5.824;2022-08-19T00:26:44;101254.72;;;21.34;57.51
48527;BME280;34317;51.660;5.824;2022-08-19T00:29:15;101247.91;;;21.30;57.34
48527;BME280;34317;51.660;5.824;2022-08-19T00:31:43;101251.59;;;21.29;57.50
48527;BME280;34317;51.660;5.824;2022-08-19T00:34:12;101250.88;;;21.27;57.32
48527;BME280;34317;51.660;5.824;2022-08-19T00:36:40;101250.13;;;21.25;57.35
48527;BME280;34317;51.660;5.824;2022-08-19T00:39:08;101239.63;;;21.22;57.55
48527;BME280;34317;51.660;5.824;2022-08-19T00:41:35;101253.34;;;21.18;57.28
48527;BME280;34317;51.660;5.824;2022-08-19T00:44:07;101254.34;;;21.17;57.27
48527;BME280;34317;51.660;5.824;2022-08-19T00:46:36;101245.53;;;21.15;57.31
48527;BME280;34317;51.660;5.824;2022-08-19T00:49:20;101242.22;;;21.12;57.30
48527;BME280;34317;51.660;5.824;2022-08-19T00:51:55;101242.34;;;21.10;57.18
48527;BME280;34317;51.660;5.824;2022-08-19T00:54:24;101249.72;;;21.08;57.33
48527;BME280;34317;51.660;5.824;2022-08-19T00:56:58;101244.56;;;21.05;57.34
48527;BME280;34317;51.660;5.824;2022-08-19T00:59:27;101239.44;;;21.02;57.12
48527;BME280;34317;51.660;5.824;2022-08-19T01:02:15;101243.34;;;20.98;57.46
48527;BME280;34317;51.660;5.824;2022-08-19T01:04:43;101254.41;;;20.95;57.43
48527;BME280;34317;51.660;5.824;2022-08-19T01:07:10;101253.78;;;20.91;57.33
48527;BME280;34317;51.660;5.824;2022-08-19T01:09:42;101257.56;;;20.89;57.52
48527;BME280;34317;51.660;5.824;2022-08-19T01:12:10;101258.56;;;20.88;57.57
48527;BME280;34317;51.660;5.824;2022-08-19T01:14:39;101265.94;;;20.86;57.46
48527;BME280;34317;51.660;5.824;2022-08-19T01:17:08;101260.78;;;20.83;57.53
48527;BME280;34317;51.660;5.824;2022-08-19T01:19:40;101267.41;;;20.78;57.77
48527;BME280;34317;51.660;5.824;2022-08-19T01:22:25;101268.38;;;20.77;57.60
48527;BME280;34317;51.660;5.824;2022-08-19T01:25:00;101256.16;;;20.73;57.71
48527;BME280;34317;51.660;5.824;2022-08-19T01:27:44;101249.31;;;20.69;57.82
48527;BME280;34317;51.660;5.824;2022-08-19T01:30:18;101246.72;;;20.68;58.18
48527;BME280;34317;51.660;5.824;2022-08-19T01:32:45;101256.66;;;20.67;58.23
48527;BME280;34317;51.660;5.824;2022-08-19T01:35:12;101253.97;;;20.67;58.36
48527;BME280;34317;51.660;5.824;2022-08-19T01:37:49;101253.22;;;20.65;58.64
48527;BME280;34317;51.660;5.824;2022-08-19T01:40:20;101251.50;;;20.64;58.64
48527;BME280;34317;51.660;5.824;2022-08-19T01:42:48;101251.50;;;20.64;58.60
48527;BME280;34317;51.660;5.824;2022-08-19T01:45:17;101256.88;;;20.64;58.70
48527;BME280;34317;51.660;5.824;2022-08-19T01:47:44;101262.28;;;20.64;58.51
48527;BME280;34317;51.660;5.824;2022-08-19T01:50:30;101258.84;;;20.62;58.73
48527;BME280;34317;51.660;5.824;2022-08-19T01:52:58;101265.97;;;20.63;58.85
48527;BME280;34317;51.660;5.824;2022-08-19T01:55:33;101267.94;;;20.61;58.88
48527;BME280;34317;51.660;5.824;2022-08-19T01:58:02;101267.94;;;20.61;58.69
48527;BME280;34317;51.660;5.824;2022-08-19T02:00:32;101273.31;;;20.61;58.99
48527;BME280;34317;51.660;5.824;2022-08-19T02:03:00;101276.97;;;20.60;58.91
48527;BME280;34317;51.660;5.824;2022-08-19T02:05:28;101282.34;;;20.60;58.62
48527;BME280;34317;51.660;5.824;2022-08-19T02:07:56;101277.44;;;20.54;58.80
48527;BME280;34317;51.660;5.824;2022-08-19T02:10:24;101272.06;;;20.54;59.05
48527;BME280;34317;51.660;5.824;2022-08-19T02:12:51;101274.00;;;20.52;59.20
48527;BME280;34317;51.660;5.824;2022-08-19T02:15:19;101272.06;;;20.54;59.65
48527;BME280;34317;51.660;5.824;2022-08-19T02:17:47;101286.25;;;20.56;59.65
48527;BME280;34317;51.660;5.824;2022-08-19T02:20:14;101282.34;;;20.60;59.53
48527;BME280;34317;51.660;5.824;2022-08-19T02:22:42;101271.59;;;20.60;59.73
48527;BME280;34317;51.660;5.824;2022-08-19T02:25:11;101270.69;;;20.59;59.77
48527;BME280;34317;51.660;5.824;2022-08-19T02:27:41;101267.94;;;20.61;59.93
48527;BME280;34317;51.660;5.824;2022-08-19T02:30:12;101268.88;;;20.60;59.79
48527;BME280;34317;51.660;5.824;2022-08-19T02:32:40;101269.63;;;20.62;59.79
48527;BME280;34317;51.660;5.824;2022-08-19T02:35:12;101275.00;;;20.62;59.72
48527;BME280;34317;51.660;5.824;2022-08-19T02:37:40;101274.03;;;20.63;59.82
48527;BME280;34317;51.660;5.824;2022-08-19T02:40:28;101282.13;;;20.63;59.46
48527;BME280;34317;51.660;5.824;2022-08-19T02:42:55;101280.38;;;20.62;59.45
48527;BME280;34317;51.660;5.824;2022-08-19T02:45:22;101280.63;;;20.59;59.50
48527;BME280;34317;51.660;5.824;2022-08-19T02:47:50;101286.97;;;20.58;59.60
48527;BME280;34317;51.660;5.824;2022-08-19T02:50:17;101278.16;;;20.56;59.61
48527;BME280;34317;51.660;5.824;2022-08-19T02:52:44;101282.81;;;20.54;59.84
48527;BME280;34317;51.660;5.824;2022-08-19T02:55:12;101291.00;;;20.52;59.59
48527;BME280;34317;51.660;5.824;2022-08-19T02:57:39;101285.84;;;20.49;59.63
48527;BME280;34317;51.660;5.824;2022-08-19T03:00:06;101292.25;;;20.48;59.75
48527;BME280;34317;51.660;5.824;2022-08-19T03:02:35;101282.44;;;20.47;59.64
48527;BME280;34317;51.660;5.824;2022-08-19T03:05:03;101280.00;;;20.44;59.63
48527;BME280;34317;51.660;5.824;2022-08-19T03:07:30;101277.56;;;20.41;59.67
48527;BME280;34317;51.660;5.824;2022-08-19T03:09:58;101282.09;;;20.40;59.54
48527;BME280;34317;51.660;5.824;2022-08-19T03:12:25;101281.34;;;20.38;59.48
48527;BME280;34317;51.660;5.824;2022-08-19T03:14:52;101282.59;;;20.34;59.46
48527;BME280;34317;51.660;5.824;2022-08-19T03:17:19;101282.81;;;20.31;59.42
48527;BME280;34317;51.660;5.824;2022-08-19T03:19:47;101280.25;;;20.30;59.28
48527;BME280;34317;51.660;5.824;2022-08-19T03:22:14;101281.34;;;20.27;59.56
48527;BME280;34317;51.660;5.824;2022-08-19T03:24:41;101288.69;;;20.25;59.71
48527;BME280;34317;51.660;5.824;2022-08-19T03:27:08;101286.13;;;20.23;59.78
48527;BME280;34317;51.660;5.824;2022-08-19T03:29:36;101290.88;;;20.20;60.19
48527;BME280;34317;51.660;5.824;2022-08-19T03:32:10;101294.53;;;20.19;60.31
48527;BME280;34317;51.660;5.824;2022-08-19T03:34:57;101299.91;;;20.19;60.61
48527;BME280;34317;51.660;5.824;2022-08-19T03:37:24;101295.41;;;20.19;60.82
48527;BME280;34317;51.660;5.824;2022-08-19T03:39:52;101300.78;;;20.19;60.88
48527;BME280;34317;51.660;5.824;2022-08-19T03:42:19;101299.69;;;20.22;61.06
48527;BME280;34317;51.660;5.824;2022-08-19T03:45:07;101292.34;;;20.24;61.01
48527;BME280;34317;51.660;5.824;2022-08-19T03:47:34;101286.97;;;20.24;60.96
48527;BME280;34317;51.660;5.824;2022-08-19T03:50:01;101277.94;;;20.25;60.94
48527;BME280;34317;51.660;5.824;2022-08-19T03:52:29;101281.34;;;20.27;61.11
48527;BME280;34317;51.660;5.824;2022-08-19T03:54:56;101290.38;;;20.26;60.99
48527;BME280;34317;51.660;5.824;2022-08-19T03:57:23;101285.00;;;20.26;60.84
48527;BME280;34317;51.660;5.824;2022-08-19T03:59:58;101288.69;;;20.25;60.96
48527;BME280;34317;51.660;5.824;2022-08-19T04:02:41;101284.38;;;20.22;61.00
48527;BME280;34317;51.660;5.824;2022-08-19T04:05:24;101283.78;;;20.19;61.01
48527;BME280;34317;51.660;5.824;2022-08-19T04:07:54;101292.84;;;20.18;61.13
48527;BME280;34317;51.660;5.824;2022-08-19T04:10:26;101291.09;;;20.17;61.07
48527;BME280;34317;51.660;5.824;2022-08-19T04:12:53;101287.69;;;20.15;61.04
48527;BME280;34317;51.660;5.824;2022-08-19T04:15:20;101282.31;;;20.15;61.29
48527;BME280;34317;51.660;5.824;2022-08-19T04:17:47;101283.31;;;20.14;61.08
48527;BME280;34317;51.660;5.824;2022-08-19T04:20:14;101273.50;;;20.13;61.59
48527;BME280;34317;51.660;5.824;2022-08-19T04:22:42;101279.63;;;20.15;61.20
48527;BME280;34317;51.660;5.824;2022-08-19T04:25:09;101275.22;;;20.14;61.35
48527;BME280;34317;51.660;5.824;2022-08-19T04:27:36;101265.44;;;20.13;61.27
48527;BME280;34317;51.660;5.824;2022-08-19T04:30:04;101261.06;;;20.12;61.62
48527;BME280;34317;51.660;5.824;2022-08-19T04:32:31;101269.22;;;20.10;61.67
48527;BME280;34317;51.660;5.824;2022-08-19T04:34:58;101270.31;;;20.08;61.70
48527;BME280;34317;51.660;5.824;2022-08-19T04:37:42;101272.25;;;20.06;61.42
48527;BME280;34317;51.660;5.824;2022-08-19T04:40:10;101264.31;;;20.04;61.90
48527;BME280;34317;51.660;5.824;2022-08-19T04:42:56;101254.44;;;20.05;62.00
48527;BME280;34317;51.660;5.824;2022-08-19T04:45:23;101261.78;;;20.02;62.18
48527;BME280;34317;51.660;5.824;2022-08-19T04:47:54;101262.50;;;20.05;62.42
48527;BME280;34317;51.660;5.824;2022-08-19T04:50:44;101274.00;;;20.07;62.15
48527;BME280;34317;51.660;5.824;2022-08-19T04:53:11;101270.31;;;20.08;62.51
48527;BME280;34317;51.660;5.824;2022-08-19T04:55:40;101265.66;;;20.10;62.70
48527;BME280;34317;51.660;5.824;2022-08-19T04:58:08;101266.44;;;20.12;62.56
48527;BME280;34317;51.660;5.824;2022-08-19T05:00:38;101269.84;;;20.14;62.71
48527;BME280;34317;51.660;5.824;2022-08-19T05:03:05;101270.47;;;20.17;62.71
48527;BME280;34317;51.660;5.824;2022-08-19T05:05:38;101274.00;;;20.18;62.72
48527;BME280;34317;51.660;5.824;2022-08-19T05:08:16;101280.13;;;20.20;62.81
48527;BME280;34317;51.660;5.824;2022-08-19T05:10:57;101282.56;;;20.23;62.86
48527;BME280;34317;51.660;5.824;2022-08-19T05:13:25;101281.59;;;20.24;62.85
48527;BME280;34317;51.660;5.824;2022-08-19T05:15:55;101292.97;;;20.28;62.72
48527;BME280;34317;51.660;5.824;2022-08-19T05:18:24;101297.22;;;20.30;62.94
48527;BME280;34317;51.660;5.824;2022-08-19T05:21:12;101299.91;;;20.30;62.94
48527;BME280;34317;51.660;5.824;2022-08-19T05:23:58;101298.97;;;20.31;62.65
48527;BME280;34317;51.660;5.824;2022-08-19T05:26:26;101293.56;;;20.31;62.79
48527;BME280;34317;51.660;5.824;2022-08-19T05:28:54;101293.34;;;20.34;63.02
48527;BME280;34317;51.660;5.824;2022-08-19T05:31:21;101296.78;;;20.36;62.89
48527;BME280;34317;51.660;5.824;2022-08-19T05:33:48;101295.53;;;20.40;63.04
48527;BME280;34317;51.660;5.824;2022-08-19T05:36:16;101311.41;;;20.43;63.05
48527;BME280;34317;51.660;5.824;2022-08-19T05:38:45;101313.88;;;20.47;62.87
48527;BME280;34317;51.660;5.824;2022-08-19T05:41:14;101316.34;;;20.50;62.94
48527;BME280;34317;51.660;5.824;2022-08-19T05:43:42;101304.56;;;20.51;63.24
48527;BME280;34317;51.660;5.824;2022-08-19T05:46:17;101313.38;;;20.53;63.09
48527;BME280;34317;51.660;5.824;2022-08-19T05:48:53;101311.19;;;20.58;63.21
48527;BME280;34317;51.660;5.824;2022-08-19T05:51:24;101308.28;;;20.61;63.23
48527;BME280;34317;51.660;5.824;2022-08-19T05:53:55;101317.84;;;20.65;63.51
48527;BME280;34317;51.660;5.824;2022-08-19T05:56:22;101310.25;;;20.70;63.29
48527;BME280;34317;51.660;5.824;2022-08-19T05:58:49;101313.41;;;20.75;63.53
48527;BME280;34317;51.660;5.824;2022-08-19T06:01:18;101312.94;;;20.82;63.57
48527;BME280;34317;51.660;5.824;2022-08-19T06:03:45;101306.19;;;20.87;63.71
48527;BME280;34317;51.660;5.824;2022-08-19T06:06:15;101317.31;;;20.94;63.75
48527;BME280;34317;51.660;5.824;2022-08-19T06:08:43;101316.78;;;21.00;63.80
48527;BME280;34317;51.660;5.824;2022-08-19T06:13:46;101316.03;;;21.09;63.70
48527;BME280;34317;51.660;5.824;2022-08-19T06:16:25;101312.09;;;21.13;63.76
48527;BME280;34317;51.660;5.824;2022-08-19T06:18:54;101313.59;;;21.17;63.72
48527;BME280;34317;51.660;5.824;2022-08-19T06:21:26;101313.94;;;21.24;63.79
48527;BME280;34317;51.660;5.824;2022-08-19T06:23:56;101319.69;;;21.31;63.84
48527;BME280;34317;51.660;5.824;2022-08-19T06:26:23;101319.16;;;21.37;63.69
48527;BME280;34317;51.660;5.824;2022-08-19T06:28:51;101315.09;;;21.43;63.50
48527;BME280;34317;51.660;5.824;2022-08-19T06:31:22;101316.47;;;21.48;63.57
48527;BME280;34317;51.660;5.824;2022-08-19T06:33:49;101317.91;;;21.52;63.45
48527;BME280;34317;51.660;5.824;2022-08-19T06:36:22;101313.72;;;21.60;63.32
48527;BME280;34317;51.660;5.824;2022-08-19T06:38:58;101321.16;;;21.67;63.19
48527;BME280;34317;51.660;5.824;2022-08-19T06:41:27;101319.78;;;21.73;63.26
48527;BME280;34317;51.660;5.824;2022-08-19T06:43:54;101323.66;;;21.80;63.28
48527;BME280;34317;51.660;5.824;2022-08-19T06:46:22;101322.16;;;21.87;63.10
48527;BME280;34317;51.660;5.824;2022-08-19T06:48:50;101320.66;;;21.94;63.02
48527;BME280;34317;51.660;5.824;2022-08-19T06:51:21;101315.44;;;22.03;62.82
48527;BME280;34317;51.660;5.824;2022-08-19T06:53:50;101316.63;;;22.10;62.86
48527;BME280;34317;51.660;5.824;2022-08-19T06:56:22;101323.22;;;22.17;62.72
48527;BME280;34317;51.660;5.824;2022-08-19T06:58:50;101325.00;;;22.28;62.40
48527;BME280;34317;51.660;5.824;2022-08-19T07:01:19;101316.81;;;22.39;62.57
48527;BME280;34317;51.660;5.824;2022-08-19T07:03:47;101318.59;;;22.50;62.45
48527;BME280;34317;51.660;5.824;2022-08-19T07:06:16;101321.19;;;22.61;62.33
48527;BME280;34317;51.660;5.824;2022-08-19T07:09:05;101319.81;;;22.77;62.14
48527;BME280;34317;51.660;5.824;2022-08-19T07:11:33;101324.13;;;22.89;61.85
48527;BME280;34317;51.660;5.824;2022-08-19T07:14:01;101317.59;;;23.01;61.88
48527;BME280;34317;51.660;5.824;2022-08-19T07:16:29;101315.41;;;23.16;61.58
48527;BME280;34317;51.660;5.824;2022-08-19T07:18:57;101324.09;;;23.29;61.49
48527;BME280;34317;51.660;5.824;2022-08-19T07:21:27;101336.38;;;23.43;61.05
48527;BME280;34317;51.660;5.824;2022-08-19T07:24:03;101336.50;;;23.51;60.87
48527;BME280;34317;51.660;5.824;2022-08-19T07:26:41;101335.66;;;23.61;60.68
48527;BME280;34317;51.660;5.824;2022-08-19T07:29:10;101331.06;;;23.71;60.41
48527;BME280;34317;51.660;5.824;2022-08-19T07:31:39;101328.56;;;23.79;60.50
48527;BME280;34317;51.660;5.824;2022-08-19T07:34:11;101334.53;;;23.93;60.19
48527;BME280;34317;51.660;5.824;2022-08-19T07:36:40;101340.75;;;24.03;60.14
48527;BME280;34317;51.660;5.824;2022-08-19T07:39:12;101337.91;;;24.14;60.01
48527;BME280;34317;51.660;5.824;2022-08-19T07:41:40;101335.03;;;24.25;59.52
48527;BME280;34317;51.660;5.824;2022-08-19T07:44:08;101335.31;;;24.32;59.65
48527;BME280;34317;51.660;5.824;2022-08-19T07:46:39;101349.50;;;24.44;59.46
48527;BME280;34317;51.660;5.824;2022-08-19T07:49:07;101349.50;;;24.54;58.91
48527;BME280;34317;51.660;5.824;2022-08-19T07:51:35;101347.78;;;24.62;58.96
48527;BME280;34317;51.660;5.824;2022-08-19T07:54:03;101353.16;;;24.72;58.53
48527;BME280;34317;51.660;5.824;2022-08-19T07:56:30;101349.69;;;24.80;58.40
48527;BME280;34317;51.660;5.824;2022-08-19T07:58:57;101347.53;;;24.83;58.18
48527;BME280;34317;51.660;5.824;2022-08-19T08:01:26;101349.47;;;24.91;58.26
48527;BME280;34317;51.660;5.824;2022-08-19T08:03:56;101354.69;;;25.02;58.10
48527;BME280;34317;51.660;5.824;2022-08-19T08:06:43;101358.38;;;25.11;57.83
48527;BME280;34317;51.660;5.824;2022-08-19T08:09:33;101360.00;;;25.22;57.98
48527;BME280;34317;51.660;5.824;2022-08-19T08:12:08;101358.81;;;25.34;57.43
48527;BME280;34317;51.660;5.824;2022-08-19T08:14:59;101361.00;;;25.49;57.32
48527;BME280;34317;51.660;5.824;2022-08-19T08:17:34;101363.50;;;25.60;56.89
48527;BME280;34317;51.660;5.824;2022-08-19T08:20:17;101371.69;;;25.68;56.52
48527;BME280;34317;51.660;5.824;2022-08-19T08:22:47;101376.19;;;25.77;56.78
48527;BME280;34317;51.660;5.824;2022-08-19T08:25:34;101371.22;;;25.91;56.54
48527;BME280;34317;51.660;5.824;2022-08-19T08:28:03;101380.34;;;25.99;56.44
48527;BME280;34317;51.660;5.824;2022-08-19T08:30:31;101383.25;;;26.06;56.04
48527;BME280;34317;51.660;5.824;2022-08-19T08:33:00;101385.34;;;26.12;55.32
48527;BME280;34317;51.660;5.824;2022-08-19T08:35:28;101383.69;;;26.19;55.33
48527;BME280;34317;51.660;5.824;2022-08-19T08:37:56;101377.81;;;26.24;54.80
48527;BME280;34317;51.660;5.824;2022-08-19T08:40:31;101378.00;;;26.31;54.52
48527;BME280;34317;51.660;5.824;2022-08-19T08:43:27;101386.84;;;26.33;54.44
48527;BME280;34317;51.660;5.824;2022-08-19T08:46:05;101379.38;;;26.35;54.13
48527;BME280;34317;51.660;5.824;2022-08-19T08:48:46;101383.31;;;26.40;54.26
48527;BME280;34317;51.660;5.824;2022-08-19T08:51:29;101383.84;;;26.44;54.86
48527;BME280;34317;51.660;5.824;2022-08-19T08:54:05;101384.28;;;26.57;54.12
48527;BME280;34317;51.660;5.824;2022-08-19T08:56:38;101389.47;;;26.69;53.79
48527;BME280;34317;51.660;5.824;2022-08-19T08:59:12;101384.09;;;26.77;53.40
48527;BME280;34317;51.660;5.824;2022-08-19T09:01:42;101384.81;;;26.87;53.15
48527;BME280;34317;51.660;5.824;2022-08-19T09:04:10;101376.38;;;26.98;52.82
48527;BME280;34317;51.660;5.824;2022-08-19T09:09:40;101381.88;;;27.23;52.57
48527;BME280;34317;51.660;5.824;2022-08-19T09:12:40;101379.25;;;27.31;51.60
48527;BME280;34317;51.660;5.824;2022-08-19T09:15:14;101383.31;;;27.35;51.34
48527;BME280;34317;51.660;5.824;2022-08-19T09:17:42;101381.28;;;27.37;50.84
48527;BME280;34317;51.660;5.824;2022-08-19T09:20:19;101380.94;;;27.41;50.56
48527;BME280;34317;51.660;5.824;2022-08-19T09:22:47;101371.44;;;27.45;50.58
48527;BME280;34317;51.660;5.824;2022-08-19T09:25:18;101377.22;;;27.50;50.42
48527;BME280;34317;51.660;5.824;2022-08-19T09:27:55;101380.13;;;27.56;50.44
48527;BME280;34317;51.660;5.824;2022-08-19T09:30:32;101376.88;;;27.61;50.13
48527;BME280;34317;51.660;5.824;2022-08-19T09:33:00;101371.97;;;27.65;50.05
48527;BME280;34317;51.660;5.824;2022-08-19T09:35:29;101369.09;;;27.66;49.81
48527;BME280;34317;51.660;5.824;2022-08-19T09:37:57;101375.38;;;27.67;49.86
48527;BME280;34317;51.660;5.824;2022-08-19T09:40:27;101371.47;;;27.69;49.71
48527;BME280;34317;51.660;5.824;2022-08-19T09:42:58;101377.25;;;27.74;49.95
48527;BME280;34317;51.660;5.824;2022-08-19T09:45:27;101375.03;;;27.78;49.84
48527;BME280;34317;51.660;5.824;2022-08-19T09:47:54;101381.34;;;27.87;49.63
48527;BME280;34317;51.660;5.824;2022-08-19T09:50:24;101373.19;;;27.87;49.43
48527;BME280;34317;51.660;5.824;2022-08-19T09:52:51;101384.25;;;27.85;49.42
48527;BME280;34317;51.660;5.824;2022-08-19T09:55:24;101385.06;;;27.86;49.26
48527;BME280;34317;51.660;5.824;2022-08-19T09:58:00;101390.34;;;27.87;48.86
48527;BME280;34317;51.660;5.824;2022-08-19T10:00:27;101385.28;;;27.92;48.78
48527;BME280;34317;51.660;5.824;2022-08-19T10:02:54;101390.94;;;27.99;48.80
48527;BME280;34317;51.660;5.824;2022-08-19T10:05:22;101392.28;;;28.03;48.76
48527;BME280;34317;51.660;5.824;2022-08-19T10:08:09;101393.13;;;28.04;48.70
48527;BME280;34317;51.660;5.824;2022-08-19T10:10:43;101404.72;;;27.98;48.43
48527;BME280;34317;51.660;5.824;2022-08-19T10:13:14;101402.84;;;27.90;48.45
48527;BME280;34317;51.660;5.824;2022-08-19T10:15:42;101401.78;;;27.83;48.02
48527;BME280;34317;51.660;5.824;2022-08-19T10:18:14;101400.41;;;27.79;48.32
48527;BME280;34317;51.660;5.824;2022-08-19T10:20:46;101400.06;;;27.82;48.00
48527;BME280;34317;51.660;5.824;2022-08-19T10:23:20;101392.94;;;27.81;48.01
48527;BME280;34317;51.660;5.824;2022-08-19T10:25:48;101401.09;;;27.81;48.19
48527;BME280;34317;51.660;5.824;2022-08-19T10:28:16;101390.88;;;27.83;48.41
48527;BME280;34317;51.660;5.824;2022-08-19T10:30:45;101391.06;;;27.89;48.47
48527;BME280;34317;51.660;5.824;2022-08-19T10:33:13;101394.66;;;27.98;47.97
48527;BME280;34317;51.660;5.824;2022-08-19T10:36:04;101394.31;;;28.01;47.47
48527;BME280;34317;51.660;5.824;2022-08-19T10:38:32;101395.00;;;28.03;47.42
48527;BME280;34317;51.660;5.824;2022-08-19T10:41:08;101388.53;;;28.04;47.27
48527;BME280;34317;51.660;5.824;2022-08-19T10:43:36;101399.94;;;28.08;47.45
48527;BME280;34317;51.660;5.824;2022-08-19T10:46:07;101395.31;;;28.08;47.15
48527;BME280;34317;51.660;5.824;2022-08-19T10:48:43;101399.94;;;28.08;47.24
48527;BME280;34317;51.660;5.824;2022-08-19T10:51:11;101386.16;;;28.09;46.78
48527;BME280;34317;51.660;5.824;2022-08-19T10:53:58;101394.81;;;28.05;46.97
48527;BME280;34317;51.660;5.824;2022-08-19T10:56:26;101378.66;;;28.03;46.69
48527;BME280;34317;51.660;5.824;2022-08-19T10:59:13;101392.28;;;28.03;46.91
48527;BME280;34317;51.660;5.824;2022-08-19T11:01:42;101381.03;;;28.06;46.69
48527;BME280;34317;51.660;5.824;2022-08-19T11:04:11;101382.06;;;28.13;47.20
48527;BME280;34317;51.660;5.824;2022-08-19T11:06:41;101393.97;;;28.21;46.70
48527;BME280;34317;51.660;5.824;2022-08-19T11:09:10;101384.41;;;28.25;46.61
48527;BME280;34317;51.660;5.824;2022-08-19T11:11:39;101387.81;;;28.27;46.51
48527;BME280;34317;51.660;5.824;2022-08-19T11:14:12;101379.66;;;28.27;46.57
48527;BME280;34317;51.660;5.824;2022-08-19T11:16:41;101390.03;;;28.31;46.55
48527;BME280;34317;51.660;5.824;2022-08-19T11:19:10;101381.34;;;28.36;46.10
48527;BME280;34317;51.660;5.824;2022-08-19T11:21:41;101383.72;;;28.39;46.34
48527;BME280;34317;51.660;5.824;2022-08-19T11:24:13;101384.75;;;28.46;46.13
48527;BME280;34317;51.660;5.824;2022-08-19T11:26:43;101399.88;;;28.57;46.13
48527;BME280;34317;51.660;5.824;2022-08-19T11:29:12;101387.44;;;28.63;46.43
48527;BME280;34317;51.660;5.824;2022-08-19T11:31:42;101385.03;;;28.68;45.89
48527;BME280;34317;51.660;5.824;2022-08-19T11:34:12;101374.16;;;28.68;45.38
48527;BME280;34317;51.660;5.824;2022-08-19T11:36:42;101369.53;;;28.68;46.16
48527;BME280;34317;51.660;5.824;2022-08-19T11:39:12;101370.53;;;28.76;46.02
48527;BME280;34317;51.660;5.824;2022-08-19T11:41:40;101374.09;;;28.84;45.50
48527;BME280;34317;51.660;5.824;2022-08-19T11:44:07;101365.88;;;28.92;45.69
48527;BME280;34317;51.660;5.824;2022-08-19T11:46:36;101372.31;;;29.00;45.34
48527;BME280;34317;51.660;5.824;2022-08-19T11:49:05;101379.94;;;29.04;45.08
48527;BME280;34317;51.660;5.824;2022-08-19T11:51:39;101375.00;;;29.08;44.65
48527;BME280;34317;51.660;5.824;2022-08-19T11:54:10;101375.38;;;29.05;44.67
48527;BME280;34317;51.660;5.824;2022-08-19T11:56:38;101367.84;;;29.07;44.84
48527;BME280;34317;51.660;5.824;2022-08-19T11:59:05;101372.09;;;29.09;44.81
48527;BME280;34317;51.660;5.824;2022-08-19T12:01:32;101369.53;;;29.08;44.37
48527;BME280;34317;51.660;5.824;2022-08-19T12:04:00;101366.16;;;29.06;44.49
48527;BME280;34317;51.660;5.824;2022-08-19T12:06:30;101367.84;;;29.07;44.36
48527;BME280;34317;51.660;5.824;2022-08-19T12:09:01;101369.19;;;29.11;44.59
48527;BME280;34317;51.660;5.824;2022-08-19T12:11:28;101368.50;;;29.17;44.75
48527;BME280;34317;51.660;5.824;2022-08-19T12:14:00;101363.38;;;29.22;44.46
48527;BME280;34317;51.660;5.824;2022-08-19T12:16:29;101363.69;;;29.27;44.56
48527;BME280;34317;51.660;5.824;2022-08-19T12:18:59;101365.69;;;29.34;44.48
48527;BME280;34317;51.660;5.824;2022-08-19T12:21:32;101371.47;;;29.39;44.48
48527;BME280;34317;51.660;5.824;2022-08-19T12:24:02;101359.81;;;29.45;44.35
48527;BME280;34317;51.660;5.824;2022-08-19T12:26:30;101372.06;;;29.49;44.17
48527;BME280;34317;51.660;5.824;2022-08-19T12:28:58;101357.41;;;29.50;44.48
48527;BME280;34317;51.660;5.824;2022-08-19T12:31:29;101361.81;;;29.51;43.97
48527;BME280;34317;51.660;5.824;2022-08-19T12:33:57;101373.41;;;29.53;44.00
48527;BME280;34317;51.660;5.824;2022-08-19T12:36:24;101367.25;;;29.59;43.98
48527;BME280;34317;51.660;5.824;2022-08-19T12:38:52;101361.03;;;29.65;43.86
48527;BME280;34317;51.660;5.824;2022-08-19T12:41:19;101365.75;;;29.72;43.38
48527;BME280;34317;51.660;5.824;2022-08-19T12:43:49;101356.91;;;29.69;43.24
48527;BME280;34317;51.660;5.824;2022-08-19T12:46:19;101358.13;;;29.67;43.47
48527;BME280;34317;51.660;5.824;2022-08-19T12:48:49;101359.63;;;29.69;43.65
48527;BME280;34317;51.660;5.824;2022-08-19T12:51:22;101357.25;;;29.75;43.69
48527;BME280;34317;51.660;5.824;2022-08-19T12:53:49;101354.63;;;29.81;43.67
48527;BME280;34317;51.660;5.824;2022-08-19T12:56:16;101346.91;;;29.85;43.29
48527;BME280;34317;51.660;5.824;2022-08-19T12:58:49;101343.81;;;29.88;43.33
48527;BME280;34317;51.660;5.824;2022-08-19T13:01:19;101341.75;;;29.90;43.15
48527;BME280;34317;51.660;5.824;2022-08-19T13:03:50;101341.75;;;29.90;43.20
48527;BME280;34317;51.660;5.824;2022-08-19T13:06:19;101330.81;;;29.90;43.02
48527;BME280;34317;51.660;5.824;2022-08-19T13:08:46;101331.31;;;29.94;43.46
48527;BME280;34317;51.660;5.824;2022-08-19T13:11:19;101333.09;;;30.01;43.21
48527;BME280;34317;51.660;5.824;2022-08-19T13:13:49;101323.97;;;30.09;43.57
48527;BME280;34317;51.660;5.824;2022-08-19T13:16:18;101331.72;;;30.20;43.36